Time,TemperatureF,DewpointF,PressureIn,WindDirection,WindDirectionDegrees,WindSpeedMPH,WindSpeedGustMPH,Humidity,HourlyPrecipIn,Conditions,Clouds,dailyrainin,SoftwareType,DateUTC
2013-03-03 00:02:00,34.3,6.1,30.00,SSW,193,3.6,3.6,30,0.00,,,0.00,VWS V14.01,2013-03-03 08:02:00,
2013-03-03 00:08:00,34.5,6.3,30.00,SSW,211,5.4,5.4,30,0.00,,,0.00,VWS V14.01,2013-03-03 08:08:00,
2013-03-03 00:13:00,34.7,6.4,30.00,SSE,158,3.1,3.1,30,0.00,,,0.00,VWS V14.01,2013-03-03 08:13:00,
2013-03-03 00:18:00,34.5,6.3,30.00,SW,234,3.6,3.6,30,0.00,,,0.00,VWS V14.01,2013-03-03 08:18:00,
2013-03-03 00:23:00,34.5,6.3,30.00,West,273,0.0,0.0,30,0.00,,,0.00,VWS V14.01,2013-03-03 08:23:00,
2013-03-03 00:28:00,34.5,6.3,30.00,West,273,0.0,0.0,30,0.00,,,0.00,VWS V14.01,2013-03-03 08:28:00,
2013-03-03 00:34:00,34.9,6.6,30.00,West,273,0.0,0.0,30,0.00,,,0.00,VWS V14.01,2013-03-03 08:34:00,
2013-03-03 00:39:00,34.9,6.6,30.00,SW,218,7.6,7.6,30,0.00,,,0.00,VWS V14.01,2013-03-03 08:39:00,
2013-03-03 00:44:00,34.7,6.4,30.00,NE,43,0.0,0.0,30,0.00,,,0.00,VWS V14.01,2013-03-03 08:44:00,
2013-03-03 00:49:00,35.1,6.8,30.00,SW,217,2.7,2.7,30,0.00,,,0.00,VWS V14.01,2013-03-03 08:49:00,
2013-03-03 00:55:00,35.4,7.1,30.00,SW,215,10.5,10.5,30,0.00,,,0.00,VWS V14.01,2013-03-03 08:55:00,
2013-03-03 01:01:00,35.4,7.1,30.00,WNW,296,7.2,7.2,30,0.00,,,0.00,VWS V14.01,2013-03-03 09:01:00,
2013-03-03 01:06:00,35.6,7.2,30.00,SW,224,10.1,10.1,30,0.00,,,0.00,VWS V14.01,2013-03-03 09:06:00,
2013-03-03 01:11:00,35.6,7.2,30.00,SSW,211,8.3,8.3,30,0.00,,,0.00,VWS V14.01,2013-03-03 09:11:00,
2013-03-03 01:17:00,35.8,6.7,30.00,SW,234,8.7,8.7,29,0.00,,,0.00,VWS V14.01,2013-03-03 09:17:00,
2013-03-03 01:22:00,35.8,6.7,30.00,SW,233,8.1,8.1,29,0.00,,,0.00,VWS V14.01,2013-03-03 09:22:00,
2013-03-03 01:28:00,35.6,6.5,30.00,SW,230,8.7,8.7,29,0.00,,,0.00,VWS V14.01,2013-03-03 09:28:00,
2013-03-03 01:33:00,35.6,6.5,30.00,SW,215,0.0,0.0,29,0.00,,,0.00,VWS V14.01,2013-03-03 09:33:00,
2013-03-03 01:38:00,35.6,6.5,30.00,West,273,0.0,0.0,29,0.00,,,0.00,VWS V14.01,2013-03-03 09:38:00,
2013-03-03 01:43:00,35.8,6.7,30.00,WSW,245,10.5,10.5,29,0.00,,,0.00,VWS V14.01,2013-03-03 09:43:00,
2013-03-03 01:48:00,35.8,6.7,30.00,SSW,213,7.6,7.6,29,0.00,,,0.00,VWS V14.01,2013-03-03 09:48:00,
2013-03-03 01:53:00,35.8,6.7,30.00,West,266,3.1,3.1,29,0.00,,,0.00,VWS V14.01,2013-03-03 09:53:00,
2013-03-03 01:59:00,35.6,6.5,30.00,SW,223,3.6,3.6,29,0.00,,,0.00,VWS V14.01,2013-03-03 09:59:00,
2013-03-03 02:05:00,35.4,7.1,30.00,SSW,206,8.7,11.0,30,0.00,,,0.00,VWS V14.01,2013-03-03 10:05:00,
2013-03-03 02:11:00,35.4,7.1,30.00,SSW,202,12.8,12.8,30,0.00,,,0.00,VWS V14.01,2013-03-03 10:11:00,
2013-03-03 02:16:00,34.9,6.6,30.00,South,177,2.7,10.1,30,0.00,,,0.00,VWS V14.01,2013-03-03 10:16:00,
2013-03-03 02:21:00,34.3,6.1,30.00,SW,217,8.7,8.7,30,0.00,,,0.00,VWS V14.01,2013-03-03 10:21:00,
2013-03-03 02:27:00,34.2,6.0,30.00,SW,230,8.7,8.7,30,0.00,,,0.00,VWS V14.01,2013-03-03 10:27:00,
2013-03-03 02:33:00,33.8,5.7,30.00,SSE,147,4.9,4.9,30,0.00,,,0.00,VWS V14.01,2013-03-03 10:33:00,
2013-03-03 02:38:00,33.6,5.5,30.03,SSW,206,8.1,8.1,30,0.00,,,0.00,VWS V14.01,2013-03-03 10:38:00,
2013-03-03 02:44:00,33.3,5.2,30.03,SSW,206,8.1,8.1,30,0.00,,,0.00,VWS V14.01,2013-03-03 10:44:00,
2013-03-03 02:50:00,33.1,5.0,30.03,SSW,199,2.2,2.2,30,0.00,,,0.00,VWS V14.01,2013-03-03 10:50:00,
2013-03-03 02:55:00,33.1,5.0,30.00,SW,224,5.8,5.8,30,0.00,,,0.00,VWS V14.01,2013-03-03 10:55:00,
2013-03-03 03:01:00,33.1,5.0,30.00,West,276,4.0,5.8,30,0.00,,,0.00,VWS V14.01,2013-03-03 11:01:00,
2013-03-03 03:06:00,32.9,4.9,30.00,SSW,213,5.4,5.4,30,0.00,,,0.00,VWS V14.01,2013-03-03 11:06:00,
2013-03-03 03:12:00,33.3,5.2,30.00,SW,217,11.9,11.9,30,0.00,,,0.00,VWS V14.01,2013-03-03 11:12:00,
2013-03-03 03:18:00,33.1,5.0,30.00,West,274,3.1,3.1,30,0.00,,,0.00,VWS V14.01,2013-03-03 11:18:00,
2013-03-03 03:23:00,33.3,5.2,30.00,West,276,2.7,2.7,30,0.00,,,0.00,VWS V14.01,2013-03-03 11:23:00,
2013-03-03 03:28:00,33.3,5.2,30.00,West,276,2.7,2.7,30,0.00,,,0.00,VWS V14.01,2013-03-03 11:28:00,
2013-03-03 03:34:00,33.6,5.5,30.00,West,267,0.0,0.0,30,0.00,,,0.00,VWS V14.01,2013-03-03 11:34:00,
2013-03-03 03:40:00,33.6,5.5,30.00,WNW,283,0.0,0.0,30,0.00,,,0.00,VWS V14.01,2013-03-03 11:40:00,
2013-03-03 03:45:00,34.0,5.8,30.00,SW,214,4.9,4.9,30,0.00,,,0.00,VWS V14.01,2013-03-03 11:45:00,
2013-03-03 03:50:00,34.0,5.8,30.00,SSW,206,2.7,2.7,30,0.00,,,0.00,VWS V14.01,2013-03-03 11:50:00,
2013-03-03 03:56:00,34.3,6.1,30.00,SSW,197,10.5,10.5,30,0.00,,,0.00,VWS V14.01,2013-03-03 11:56:00,
2013-03-03 04:02:00,34.7,6.4,30.00,WSW,258,4.0,4.0,30,0.00,,,0.00,VWS V14.01,2013-03-03 12:02:00,
2013-03-03 04:07:00,34.7,6.4,30.00,South,191,11.0,11.0,30,0.00,,,0.00,VWS V14.01,2013-03-03 12:07:00,
2013-03-03 04:13:00,33.8,5.7,30.00,SSW,196,6.3,8.3,30,0.00,,,0.00,VWS V14.01,2013-03-03 12:13:00,
2013-03-03 04:18:00,33.6,5.5,30.00,SW,231,0.0,3.1,30,0.00,,,0.00,VWS V14.01,2013-03-03 12:18:00,
2013-03-03 04:23:00,33.4,5.3,30.03,WSW,238,5.8,5.8,30,0.00,,,0.00,VWS V14.01,2013-03-03 12:23:00,
2013-03-03 04:28:00,33.6,5.5,30.03,SSW,209,2.7,2.7,30,0.00,,,0.00,VWS V14.01,2013-03-03 12:28:00,
2013-03-03 04:34:00,33.8,5.7,30.03,SW,221,6.3,6.3,30,0.00,,,0.00,VWS V14.01,2013-03-03 12:34:00,
2013-03-03 04:39:00,33.8,5.7,30.03,SW,214,4.0,4.0,30,0.00,,,0.00,VWS V14.01,2013-03-03 12:39:00,
2013-03-03 04:45:00,34.0,5.8,30.03,SSW,200,8.1,8.1,30,0.00,,,0.00,VWS V14.01,2013-03-03 12:45:00,
2013-03-03 04:50:00,34.0,5.8,30.03,SSW,203,3.1,3.1,30,0.00,,,0.00,VWS V14.01,2013-03-03 12:50:00,
2013-03-03 04:56:00,33.8,5.7,30.03,SW,224,8.7,8.7,30,0.00,,,0.00,VWS V14.01,2013-03-03 12:56:00,
2013-03-03 05:01:00,33.8,5.7,30.03,SSW,209,2.2,2.2,30,0.00,,,0.00,VWS V14.01,2013-03-03 13:01:00,
2013-03-03 05:07:00,33.6,5.5,30.03,SW,229,0.0,5.8,30,0.00,,,0.00,VWS V14.01,2013-03-03 13:07:00,
2013-03-03 05:12:00,33.6,5.5,30.03,SSW,210,6.3,6.3,30,0.00,,,0.00,VWS V14.01,2013-03-03 13:12:00,
2013-03-03 05:17:00,33.6,5.5,30.03,WSW,249,2.7,4.0,30,0.00,,,0.00,VWS V14.01,2013-03-03 13:17:00,
2013-03-03 05:23:00,33.4,5.3,30.03,SSW,204,8.1,8.1,30,0.00,,,0.00,VWS V14.01,2013-03-03 13:23:00,
2013-03-03 05:29:00,33.3,5.2,30.03,SW,221,2.7,9.2,30,0.00,,,0.00,VWS V14.01,2013-03-03 13:29:00,
2013-03-03 05:34:00,33.4,5.3,30.03,SSW,208,3.6,3.6,30,0.00,,,0.00,VWS V14.01,2013-03-03 13:34:00,
2013-03-03 05:40:00,33.4,5.3,30.03,SSW,208,3.6,3.6,30,0.00,,,0.00,VWS V14.01,2013-03-03 13:40:00,
2013-03-03 05:45:00,33.4,5.3,30.03,SW,226,0.0,6.3,30,0.00,,,0.00,VWS V14.01,2013-03-03 13:45:00,
2013-03-03 05:50:00,33.4,5.3,30.03,SW,221,3.6,3.6,30,0.00,,,0.00,VWS V14.01,2013-03-03 13:50:00,
2013-03-03 05:55:00,33.4,5.3,30.03,SW,218,0.0,0.0,30,0.00,,,0.00,VWS V14.01,2013-03-03 13:55:00,
2013-03-03 06:00:00,33.4,5.3,30.03,SW,218,0.0,0.0,30,0.00,,,0.00,VWS V14.01,2013-03-03 14:00:00,
2013-03-03 06:06:00,33.3,5.2,30.03,SW,218,0.0,0.0,30,0.00,,,0.00,VWS V14.01,2013-03-03 14:06:00,
2013-03-03 06:11:00,33.3,5.2,30.03,SW,218,0.0,0.0,30,0.00,,,0.00,VWS V14.01,2013-03-03 14:11:00,
2013-03-03 06:17:00,33.6,5.5,30.03,WSW,254,0.0,2.7,30,0.00,,,0.00,VWS V14.01,2013-03-03 14:17:00,
2013-03-03 06:23:00,33.8,5.7,30.03,SW,227,5.8,5.8,30,0.00,,,0.00,VWS V14.01,2013-03-03 14:23:00,
2013-03-03 06:28:00,33.8,5.7,30.03,SSW,202,0.0,0.0,30,0.00,,,0.00,VWS V14.01,2013-03-03 14:28:00,
2013-03-03 06:34:00,33.8,5.7,30.03,SSW,213,0.0,0.0,30,0.00,,,0.00,VWS V14.01,2013-03-03 14:34:00,
2013-03-03 06:39:00,33.6,5.5,30.06,SSW,213,0.0,0.0,30,0.00,,,0.00,VWS V14.01,2013-03-03 14:39:00,
2013-03-03 06:45:00,33.6,5.5,30.06,SSW,213,0.0,0.0,30,0.00,,,0.00,VWS V14.01,2013-03-03 14:45:00,
2013-03-03 06:50:00,33.8,5.7,30.06,SSW,213,0.0,0.0,30,0.00,,,0.00,VWS V14.01,2013-03-03 14:50:00,
2013-03-03 06:56:00,33.8,5.7,30.06,SW,215,3.1,3.1,30,0.00,,,0.00,VWS V14.01,2013-03-03 14:56:00,
2013-03-03 07:01:00,34.0,5.8,30.06,SW,215,0.0,0.0,30,0.00,,,0.00,VWS V14.01,2013-03-03 15:01:00,
2013-03-03 07:06:00,34.5,6.3,30.06,SW,218,7.2,7.2,30,0.00,,,0.00,VWS V14.01,2013-03-03 15:06:00,
2013-03-03 07:11:00,34.3,6.1,30.06,SSW,213,3.1,5.4,30,0.00,,,0.00,VWS V14.01,2013-03-03 15:11:00,
2013-03-03 07:17:00,34.3,6.1,30.06,WSW,250,3.6,3.6,30,0.00,,,0.00,VWS V14.01,2013-03-03 15:17:00,
2013-03-03 07:23:00,34.5,6.3,30.06,SW,232,7.2,10.1,30,0.00,,,0.00,VWS V14.01,2013-03-03 15:23:00,
2013-03-03 07:29:00,34.5,6.3,30.06,SW,235,8.7,8.7,30,0.00,,,0.00,VWS V14.01,2013-03-03 15:29:00,
2013-03-03 07:34:00,34.7,6.4,30.06,West,264,10.5,10.5,30,0.00,,,0.00,VWS V14.01,2013-03-03 15:34:00,
2013-03-03 07:39:00,35.1,6.8,30.06,South,191,5.4,8.7,30,0.00,,,0.00,VWS V14.01,2013-03-03 15:39:00,
2013-03-03 07:44:00,35.1,6.8,30.06,SW,224,3.6,8.1,30,0.00,,,0.00,VWS V14.01,2013-03-03 15:44:00,
2013-03-03 07:49:00,35.2,6.9,30.06,SW,228,7.2,7.2,30,0.00,,,0.00,VWS V14.01,2013-03-03 15:49:00,
2013-03-03 07:55:00,35.4,7.1,30.06,SW,221,8.7,8.7,30,0.00,,,0.00,VWS V14.01,2013-03-03 15:55:00,
2013-03-03 08:00:00,35.8,7.4,30.06,SW,218,5.8,5.8,30,0.00,,,0.00,VWS V14.01,2013-03-03 16:00:00,
2013-03-03 08:06:00,35.6,7.2,30.06,SW,217,8.1,8.1,30,0.00,,,0.00,VWS V14.01,2013-03-03 16:06:00,
2013-03-03 08:11:00,35.8,7.4,30.06,SSW,203,5.4,11.0,30,0.00,,,0.00,VWS V14.01,2013-03-03 16:11:00,
2013-03-03 08:16:00,36.1,7.7,30.06,SW,222,12.8,12.8,30,0.00,,,0.00,VWS V14.01,2013-03-03 16:16:00,
2013-03-03 08:22:00,35.8,7.4,30.06,SW,228,8.7,8.7,30,0.00,,,0.00,VWS V14.01,2013-03-03 16:22:00,
2013-03-03 08:27:00,36.1,7.7,30.06,SW,225,7.6,7.6,30,0.00,,,0.00,VWS V14.01,2013-03-03 16:27:00,
2013-03-03 08:33:00,36.7,7.4,30.06,SW,217,8.1,8.1,29,0.00,,,0.00,VWS V14.01,2013-03-03 16:33:00,
2013-03-03 08:38:00,37.0,7.8,30.06,SSW,213,8.3,8.3,29,0.00,,,0.00,VWS V14.01,2013-03-03 16:38:00,
2013-03-03 08:44:00,36.9,7.6,30.06,SW,221,8.1,12.3,29,0.00,,,0.00,VWS V14.01,2013-03-03 16:44:00,
2013-03-03 08:49:00,36.9,8.3,30.06,SW,222,8.7,12.3,30,0.00,,,0.00,VWS V14.01,2013-03-03 16:49:00,
2013-03-03 08:55:00,36.5,8.0,30.06,WSW,237,12.3,12.3,30,0.00,,,0.00,VWS V14.01,2013-03-03 16:55:00,
2013-03-03 09:01:00,36.7,8.2,30.06,SW,229,3.6,11.9,30,0.00,,,0.00,VWS V14.01,2013-03-03 17:01:00,
2013-03-03 09:07:00,36.9,8.3,30.06,SW,215,11.0,11.0,30,0.00,,,0.00,VWS V14.01,2013-03-03 17:07:00,
2013-03-03 09:12:00,36.9,8.3,30.06,West,263,7.6,10.1,30,0.00,,,0.00,VWS V14.01,2013-03-03 17:12:00,
2013-03-03 09:18:00,37.4,8.1,30.06,SW,215,13.2,13.2,29,0.00,,,0.00,VWS V14.01,2013-03-03 17:18:00,
2013-03-03 09:24:00,37.4,8.1,30.06,SSW,210,11.0,11.0,29,0.00,,,0.00,VWS V14.01,2013-03-03 17:24:00,
2013-03-03 09:30:00,37.8,8.4,30.06,SSW,207,13.2,14.1,29,0.00,,,0.00,VWS V14.01,2013-03-03 17:30:00,
2013-03-03 09:36:00,38.1,8.7,30.06,SW,230,10.1,10.1,29,0.00,,,0.00,VWS V14.01,2013-03-03 17:36:00,
2013-03-03 09:42:00,37.9,8.5,30.06,SW,234,13.2,13.2,29,0.00,,,0.00,VWS V14.01,2013-03-03 17:42:00,
2013-03-03 09:48:00,38.5,9.0,30.06,SW,233,12.3,13.2,29,0.00,,,0.00,VWS V14.01,2013-03-03 17:48:00,
2013-03-03 09:54:00,38.7,9.2,30.06,SW,228,11.0,14.1,29,0.00,,,0.00,VWS V14.01,2013-03-03 17:54:00,
2013-03-03 10:00:00,38.7,9.2,30.06,SW,221,11.0,11.0,29,0.00,,,0.00,VWS V14.01,2013-03-03 18:00:00,
2013-03-03 10:06:00,38.5,9.0,30.06,WSW,247,5.4,5.4,29,0.00,,,0.00,VWS V14.01,2013-03-03 18:06:00,
2013-03-03 10:11:00,38.3,8.8,30.06,SW,218,12.8,12.8,29,0.00,,,0.00,VWS V14.01,2013-03-03 18:11:00,
2013-03-03 10:16:00,38.1,8.7,30.06,SW,214,9.2,13.2,29,0.00,,,0.00,VWS V14.01,2013-03-03 18:16:00,
2013-03-03 10:21:00,37.6,8.2,30.06,SW,223,17.4,17.4,29,0.00,,,0.00,VWS V14.01,2013-03-03 18:21:00,
2013-03-03 10:27:00,37.0,8.5,30.06,SW,230,8.7,8.7,30,0.00,,,0.00,VWS V14.01,2013-03-03 18:27:00,
2013-03-03 10:32:00,36.9,8.3,30.06,SSW,205,10.5,10.5,30,0.00,,,0.00,VWS V14.01,2013-03-03 18:32:00,
2013-03-03 10:38:00,36.9,8.3,30.06,WSW,253,14.1,14.1,30,0.00,,,0.00,VWS V14.01,2013-03-03 18:38:00,
2013-03-03 10:43:00,37.9,8.5,30.06,WSW,254,12.8,12.8,29,0.00,,,0.00,VWS V14.01,2013-03-03 18:43:00,
2013-03-03 10:48:00,38.1,8.7,30.06,SW,235,8.7,8.7,29,0.00,,,0.00,VWS V14.01,2013-03-03 18:48:00,
2013-03-03 10:54:00,37.6,8.2,30.06,SW,220,11.0,11.0,29,0.00,,,0.00,VWS V14.01,2013-03-03 18:54:00,
2013-03-03 10:59:00,38.3,8.8,30.06,SW,236,11.0,11.0,29,0.00,,,0.00,VWS V14.01,2013-03-03 18:59:00,
2013-03-03 11:05:00,39.0,9.5,30.06,SSW,208,12.3,12.3,29,0.00,,,0.00,VWS V14.01,2013-03-03 19:05:00,
2013-03-03 11:11:00,39.2,8.9,30.06,SW,226,10.1,10.1,28,0.00,,,0.00,VWS V14.01,2013-03-03 19:11:00,
2013-03-03 11:17:00,39.4,9.0,30.06,SW,223,8.3,11.4,28,0.00,,,0.00,VWS V14.01,2013-03-03 19:17:00,
2013-03-03 11:23:00,39.4,7.4,30.06,SW,236,13.2,13.2,26,0.00,,,0.00,VWS V14.01,2013-03-03 19:23:00,
2013-03-03 11:28:00,39.6,9.2,30.06,SW,229,19.2,19.2,28,0.00,,,0.00,VWS V14.01,2013-03-03 19:28:00,
2013-03-03 11:33:00,40.1,9.6,30.06,SW,229,15.9,15.9,28,0.00,,,0.00,VWS V14.01,2013-03-03 19:33:00,
2013-03-03 11:39:00,39.7,7.7,30.06,WSW,247,11.0,11.0,26,0.00,,,0.00,VWS V14.01,2013-03-03 19:39:00,
2013-03-03 11:44:00,39.9,7.8,30.06,SW,228,8.3,8.3,26,0.00,,,0.00,VWS V14.01,2013-03-03 19:44:00,
2013-03-03 11:49:00,39.6,7.5,30.06,SW,230,14.1,14.1,26,0.00,,,0.00,VWS V14.01,2013-03-03 19:49:00,
2013-03-03 11:54:00,39.4,9.0,30.06,SW,233,15.0,15.0,28,0.00,,,0.00,VWS V14.01,2013-03-03 19:54:00,
2013-03-03 12:00:00,39.2,8.9,30.06,SSW,210,14.5,14.5,28,0.00,,,0.00,VWS V14.01,2013-03-03 20:00:00,
2013-03-03 12:06:00,39.7,9.3,30.06,WSW,250,11.0,12.8,28,0.00,,,0.00,VWS V14.01,2013-03-03 20:06:00,
2013-03-03 12:12:00,39.6,9.2,30.06,SW,216,7.6,13.2,28,0.00,,,0.00,VWS V14.01,2013-03-03 20:12:00,
2013-03-03 12:17:00,39.6,9.2,30.06,SW,234,10.5,12.8,28,0.00,,,0.00,VWS V14.01,2013-03-03 20:17:00,
2013-03-03 12:22:00,40.1,9.6,30.06,SSW,211,17.4,17.4,28,0.00,,,0.00,VWS V14.01,2013-03-03 20:22:00,
2013-03-03 12:27:00,39.7,9.3,30.06,SW,219,17.0,17.0,28,0.00,,,0.00,VWS V14.01,2013-03-03 20:27:00,
2013-03-03 12:33:00,40.1,9.6,30.06,South,190,9.6,10.5,28,0.00,,,0.00,VWS V14.01,2013-03-03 20:33:00,
2013-03-03 12:39:00,40.5,9.9,30.06,SSW,212,9.2,9.2,28,0.00,,,0.00,VWS V14.01,2013-03-03 20:39:00,
2013-03-03 12:44:00,40.6,8.4,30.06,WSW,246,13.2,13.2,26,0.00,,,0.00,VWS V14.01,2013-03-03 20:44:00,
2013-03-03 12:49:00,41.0,8.8,30.06,SSW,207,8.7,10.5,26,0.00,,,0.00,VWS V14.01,2013-03-03 20:49:00,
2013-03-03 12:55:00,41.2,8.9,30.06,SW,220,8.3,15.0,26,0.00,,,0.00,VWS V14.01,2013-03-03 20:55:00,
2013-03-03 13:00:00,41.5,9.2,30.06,SSW,195,6.3,13.2,26,0.00,,,0.00,VWS V14.01,2013-03-03 21:00:00,
2013-03-03 13:05:00,41.0,8.8,30.06,SW,217,15.4,17.4,26,0.00,,,0.00,VWS V14.01,2013-03-03 21:05:00,
2013-03-03 13:10:00,41.0,8.8,30.06,SW,235,10.1,10.5,26,0.00,,,0.00,VWS V14.01,2013-03-03 21:10:00,
2013-03-03 13:16:00,40.3,8.1,30.06,SSW,207,11.0,15.0,26,0.00,,,0.00,VWS V14.01,2013-03-03 21:16:00,
2013-03-03 13:21:00,41.2,8.9,30.06,SSW,209,15.0,17.0,26,0.00,,,0.00,VWS V14.01,2013-03-03 21:21:00,
2013-03-03 13:26:00,41.4,9.1,30.06,SW,224,8.7,8.7,26,0.00,,,0.00,VWS V14.01,2013-03-03 21:26:00,
2013-03-03 13:32:00,41.0,8.8,30.06,SW,219,15.4,17.0,26,0.00,,,0.00,VWS V14.01,2013-03-03 21:32:00,
2013-03-03 13:37:00,41.4,9.1,30.06,SW,226,13.2,13.2,26,0.00,,,0.00,VWS V14.01,2013-03-03 21:37:00,
2013-03-03 13:42:00,41.0,8.8,30.06,SSW,198,8.3,11.0,26,0.00,,,0.00,VWS V14.01,2013-03-03 21:42:00,
2013-03-03 13:48:00,40.6,10.1,30.06,SE,144,5.4,14.1,28,0.00,,,0.00,VWS V14.01,2013-03-03 21:48:00,
2013-03-03 13:53:00,41.0,8.8,30.06,SSW,213,11.0,11.0,26,0.00,,,0.00,VWS V14.01,2013-03-03 21:53:00,
2013-03-03 13:58:00,40.8,10.2,30.06,SW,219,10.1,14.5,28,0.00,,,0.00,VWS V14.01,2013-03-03 21:58:00,
2013-03-03 14:03:00,41.4,9.1,30.06,SW,221,13.2,13.2,26,0.00,,,0.00,VWS V14.01,2013-03-03 22:03:00,
2013-03-03 14:09:00,42.3,9.8,30.09,SSW,206,11.0,11.0,26,0.00,,,0.00,VWS V14.01,2013-03-03 22:09:00,
2013-03-03 14:14:00,42.1,9.7,30.09,SW,225,12.3,12.3,26,0.00,,,0.00,VWS V14.01,2013-03-03 22:14:00,
2013-03-03 14:20:00,43.2,9.7,30.09,SW,232,10.1,12.8,25,0.00,,,0.00,VWS V14.01,2013-03-03 22:20:00,
2013-03-03 14:26:00,43.7,10.2,30.09,SW,226,8.3,8.3,25,0.00,,,0.00,VWS V14.01,2013-03-03 22:26:00,
2013-03-03 14:32:00,43.9,10.4,30.09,SW,229,12.8,12.8,25,0.00,,,0.00,VWS V14.01,2013-03-03 22:32:00,
2013-03-03 14:37:00,43.5,10.0,30.09,SW,219,12.8,12.8,25,0.00,,,0.00,VWS V14.01,2013-03-03 22:37:00,
2013-03-03 14:43:00,42.3,9.8,30.09,SSW,198,10.5,10.5,26,0.00,,,0.00,VWS V14.01,2013-03-03 22:43:00,
2013-03-03 14:48:00,41.7,11.0,30.09,SSW,207,8.1,8.1,28,0.00,,,0.00,VWS V14.01,2013-03-03 22:48:00,
2013-03-03 14:54:00,40.6,10.1,30.09,WSW,250,6.3,6.3,28,0.00,,,0.00,VWS V14.01,2013-03-03 22:54:00,
2013-03-03 14:59:00,40.3,9.8,30.09,WSW,253,8.7,8.7,28,0.00,,,0.00,VWS V14.01,2013-03-03 22:59:00,
2013-03-03 15:05:00,40.1,10.4,30.09,WSW,237,8.3,11.4,29,0.00,,,0.00,VWS V14.01,2013-03-03 23:05:00,
2013-03-03 15:11:00,40.3,10.6,30.09,SW,229,10.5,10.5,29,0.00,,,0.00,VWS V14.01,2013-03-03 23:11:00,
2013-03-03 15:16:00,40.6,10.9,30.09,SW,229,12.8,12.8,29,0.00,,,0.00,VWS V14.01,2013-03-03 23:16:00,
2013-03-03 15:21:00,39.7,10.1,30.09,SW,231,6.7,9.2,29,0.00,,,0.00,VWS V14.01,2013-03-03 23:21:00,
2013-03-03 15:27:00,40.3,10.6,30.09,SSW,213,8.1,8.1,29,0.00,,,0.00,VWS V14.01,2013-03-03 23:27:00,
2013-03-03 15:32:00,40.1,10.4,30.09,SSW,211,8.3,8.3,29,0.00,,,0.00,VWS V14.01,2013-03-03 23:32:00,
2013-03-03 15:37:00,40.3,9.8,30.09,SW,222,8.3,8.3,28,0.00,,,0.00,VWS V14.01,2013-03-03 23:37:00,
2013-03-03 15:43:00,41.0,10.4,30.09,SE,145,8.3,8.3,28,0.00,,,0.00,VWS V14.01,2013-03-03 23:43:00,
2013-03-03 15:48:00,41.4,10.7,30.09,SW,216,8.3,12.8,28,0.00,,,0.00,VWS V14.01,2013-03-03 23:48:00,
2013-03-03 15:53:00,41.2,8.9,30.11,SSW,212,8.1,8.1,26,0.00,,,0.00,VWS V14.01,2013-03-03 23:53:00,
2013-03-03 15:58:00,41.2,10.6,30.11,SSW,212,13.2,13.2,28,0.00,,,0.00,VWS V14.01,2013-03-03 23:58:00,
2013-03-03 16:03:00,41.2,10.6,30.11,SSW,212,8.1,8.1,28,0.00,,,0.00,VWS V14.01,2013-03-04 00:03:00,
2013-03-03 16:09:00,40.6,10.1,30.11,SW,218,8.1,8.1,28,0.00,,,0.00,VWS V14.01,2013-03-04 00:09:00,
2013-03-03 16:14:00,40.5,9.9,30.11,SSW,210,8.1,8.1,28,0.00,,,0.00,VWS V14.01,2013-03-04 00:14:00,
2013-03-03 16:20:00,39.7,10.1,30.11,SW,224,8.1,10.1,29,0.00,,,0.00,VWS V14.01,2013-03-04 00:20:00,
2013-03-03 16:25:00,39.9,9.5,30.11,SW,220,10.5,10.5,28,0.00,,,0.00,VWS V14.01,2013-03-04 00:25:00,
2013-03-03 16:31:00,40.1,9.6,30.11,SSW,194,8.1,8.1,28,0.00,,,0.00,VWS V14.01,2013-03-04 00:31:00,
2013-03-03 16:36:00,39.7,9.3,30.11,SSW,207,5.4,11.4,28,0.00,,,0.00,VWS V14.01,2013-03-04 00:36:00,
2013-03-03 16:42:00,39.6,9.2,30.11,SSW,212,7.6,7.6,28,0.00,,,0.00,VWS V14.01,2013-03-04 00:42:00,
2013-03-03 16:48:00,39.4,9.0,30.11,SSW,195,8.1,8.1,28,0.00,,,0.00,VWS V14.01,2013-03-04 00:48:00,
2013-03-03 16:53:00,39.2,8.9,30.11,SSW,211,10.1,10.1,28,0.00,,,0.00,VWS V14.01,2013-03-04 00:53:00,
2013-03-03 16:58:00,39.2,8.9,30.11,WSW,241,6.3,6.3,28,0.00,,,0.00,VWS V14.01,2013-03-04 00:58:00,
2013-03-03 17:04:00,39.0,9.5,30.11,SW,223,8.3,8.3,29,0.00,,,0.00,VWS V14.01,2013-03-04 01:04:00,
2013-03-03 17:09:00,38.8,9.3,30.11,WSW,244,2.7,2.7,29,0.00,,,0.00,VWS V14.01,2013-03-04 01:09:00,
2013-03-03 17:14:00,38.8,9.3,30.11,SSW,213,2.2,2.2,29,0.00,,,0.00,VWS V14.01,2013-03-04 01:14:00,
2013-03-03 17:19:00,38.7,9.2,30.11,West,261,0.0,0.0,29,0.00,,,0.00,VWS V14.01,2013-03-04 01:19:00,
2013-03-03 17:24:00,38.5,9.0,30.11,SW,216,0.0,0.0,29,0.00,,,0.00,VWS V14.01,2013-03-04 01:24:00,
2013-03-03 17:29:00,38.1,8.7,30.11,WSW,240,0.0,0.0,29,0.00,,,0.00,VWS V14.01,2013-03-04 01:29:00,
2013-03-03 17:35:00,37.9,8.5,30.11,WSW,255,0.0,0.0,29,0.00,,,0.00,VWS V14.01,2013-03-04 01:35:00,
2013-03-03 17:40:00,37.6,8.2,30.11,WSW,249,0.0,0.0,29,0.00,,,0.00,VWS V14.01,2013-03-04 01:40:00,
2013-03-03 17:45:00,37.4,8.1,30.11,WSW,249,0.0,0.0,29,0.00,,,0.00,VWS V14.01,2013-03-04 01:45:00,
2013-03-03 17:51:00,37.4,5.7,30.11,WSW,249,0.0,0.0,26,0.00,,,0.00,VWS V14.01,2013-03-04 01:51:00,
2013-03-03 17:56:00,37.2,6.3,30.11,West,273,0.0,0.0,27,0.00,,,0.00,VWS V14.01,2013-03-04 01:56:00,
2013-03-03 18:02:00,37.2,6.3,30.11,West,273,0.0,0.0,27,0.00,,,0.00,VWS V14.01,2013-03-04 02:02:00,
2013-03-03 18:08:00,37.0,6.2,30.14,WNW,287,0.0,0.0,27,0.00,,,0.00,VWS V14.01,2013-03-04 02:08:00,
2013-03-03 18:14:00,36.9,6.0,30.14,WSW,237,0.0,0.0,27,0.00,,,0.00,VWS V14.01,2013-03-04 02:14:00,
2013-03-03 18:20:00,36.7,5.9,30.14,SSW,207,0.0,0.0,27,0.00,,,0.00,VWS V14.01,2013-03-04 02:20:00,
2013-03-03 18:25:00,36.7,5.9,30.14,West,268,0.0,0.0,27,0.00,,,0.00,VWS V14.01,2013-03-04 02:25:00,
2013-03-03 18:30:00,36.5,5.7,30.14,SW,232,0.0,0.0,27,0.00,,,0.00,VWS V14.01,2013-03-04 02:30:00,
2013-03-03 18:35:00,36.3,7.1,30.14,SW,232,0.0,0.0,29,0.00,,,0.00,VWS V14.01,2013-03-04 02:35:00,
2013-03-03 18:40:00,36.3,7.1,30.14,WSW,243,0.0,0.0,29,0.00,,,0.00,VWS V14.01,2013-03-04 02:40:00,
2013-03-03 18:46:00,36.1,7.0,30.14,WSW,243,0.0,0.0,29,0.00,,,0.00,VWS V14.01,2013-03-04 02:46:00,
2013-03-03 18:52:00,36.1,7.0,30.14,SW,236,0.0,0.0,29,0.00,,,0.00,VWS V14.01,2013-03-04 02:52:00,
2013-03-03 18:58:00,36.1,7.0,30.14,WSW,243,0.0,0.0,29,0.00,,,0.00,VWS V14.01,2013-03-04 02:58:00,
2013-03-03 19:03:00,36.0,6.8,30.14,WSW,243,0.0,0.0,29,0.00,,,0.00,VWS V14.01,2013-03-04 03:03:00,
2013-03-03 19:08:00,35.8,6.7,30.14,West,264,0.0,0.0,29,0.00,,,0.00,VWS V14.01,2013-03-04 03:08:00,
2013-03-03 19:13:00,35.4,7.1,30.14,SW,236,0.0,0.0,30,0.00,,,0.00,VWS V14.01,2013-03-04 03:13:00,
2013-03-03 19:18:00,35.4,7.1,30.14,SW,236,0.0,0.0,30,0.00,,,0.00,VWS V14.01,2013-03-04 03:18:00,
2013-03-03 19:23:00,35.4,7.1,30.14,West,264,3.1,3.1,30,0.00,,,0.00,VWS V14.01,2013-03-04 03:23:00,
2013-03-03 19:29:00,35.4,7.1,30.14,SW,221,4.0,4.0,30,0.00,,,0.00,VWS V14.01,2013-03-04 03:29:00,
2013-03-03 19:34:00,35.1,6.8,30.14,SW,221,4.0,4.0,30,0.00,,,0.00,VWS V14.01,2013-03-04 03:34:00,
2013-03-03 19:39:00,35.1,6.8,30.17,SW,233,0.0,0.0,30,0.00,,,0.00,VWS V14.01,2013-03-04 03:39:00,
2013-03-03 19:44:00,34.9,6.6,30.17,SW,235,0.0,0.0,30,0.00,,,0.00,VWS V14.01,2013-03-04 03:44:00,
2013-03-03 19:49:00,34.7,6.4,30.17,SW,235,0.0,0.0,30,0.00,,,0.00,VWS V14.01,2013-03-04 03:49:00,
2013-03-03 19:54:00,34.5,6.3,30.17,SW,235,0.0,0.0,30,0.00,,,0.00,VWS V14.01,2013-03-04 03:54:00,
2013-03-03 20:00:00,34.5,6.3,30.17,West,275,0.0,0.0,30,0.00,,,0.00,VWS V14.01,2013-03-04 04:00:00,
2013-03-03 20:05:00,34.3,6.1,30.17,West,275,0.0,0.0,30,0.00,,,0.00,VWS V14.01,2013-03-04 04:05:00,
2013-03-03 20:10:00,34.3,6.1,30.17,West,275,0.0,0.0,30,0.00,,,0.00,VWS V14.01,2013-03-04 04:10:00,
2013-03-03 20:16:00,34.3,6.1,30.17,WSW,246,0.0,0.0,30,0.00,,,0.00,VWS V14.01,2013-03-04 04:16:00,
2013-03-03 20:22:00,34.3,6.1,30.17,SW,235,0.0,4.5,30,0.00,,,0.00,VWS V14.01,2013-03-04 04:22:00,
2013-03-03 20:27:00,34.3,6.1,30.17,SW,235,0.0,0.0,30,0.00,,,0.00,VWS V14.01,2013-03-04 04:27:00,
2013-03-03 20:33:00,34.3,6.1,30.17,West,268,0.0,0.0,30,0.00,,,0.00,VWS V14.01,2013-03-04 04:33:00,
2013-03-03 20:38:00,34.2,6.0,30.17,West,268,0.0,0.0,30,0.00,,,0.00,VWS V14.01,2013-03-04 04:38:00,
2013-03-03 20:43:00,34.0,5.8,30.17,NW,312,0.0,0.0,30,0.00,,,0.00,VWS V14.01,2013-03-04 04:43:00,
2013-03-03 20:49:00,34.0,5.8,30.17,WNW,295,0.0,0.0,30,0.00,,,0.00,VWS V14.01,2013-03-04 04:49:00,
2013-03-03 20:54:00,34.0,5.8,30.17,WNW,295,0.0,0.0,30,0.00,,,0.00,VWS V14.01,2013-03-04 04:54:00,
2013-03-03 21:00:00,34.0,5.8,30.17,WNW,295,0.0,0.0,30,0.00,,,0.00,VWS V14.01,2013-03-04 05:00:00,
2013-03-03 21:01:00,34.2,6.0,30.17,WNW,295,0.0,0.0,30,0.00,,,0.00,VWS V14.01,2013-03-04 05:01:00,
2013-03-03 21:05:00,34.2,6.0,30.17,WSW,237,5.4,5.4,30,0.00,,,0.00,VWS V14.01,2013-03-04 05:05:00,
2013-03-03 21:09:00,34.0,5.8,30.17,WSW,246,0.0,0.0,30,0.00,,,0.00,VWS V14.01,2013-03-04 05:09:00,
2013-03-03 21:14:00,33.8,5.7,30.17,SW,235,0.0,0.0,30,0.00,,,0.00,VWS V14.01,2013-03-04 05:14:00,
2013-03-03 21:19:00,33.6,5.5,30.17,SW,233,0.0,0.0,30,0.00,,,0.00,VWS V14.01,2013-03-04 05:19:00,
2013-03-03 21:25:00,33.6,5.5,30.17,WSW,238,0.0,2.2,30,0.00,,,0.00,VWS V14.01,2013-03-04 05:25:00,
2013-03-03 21:30:00,33.6,5.5,30.17,WSW,257,0.0,0.0,30,0.00,,,0.00,VWS V14.01,2013-03-04 05:30:00,
2013-03-03 21:35:00,33.4,5.3,30.17,WSW,257,0.0,0.0,30,0.00,,,0.00,VWS V14.01,2013-03-04 05:35:00,
2013-03-03 21:40:00,33.3,5.2,30.17,WSW,247,0.0,0.0,30,0.00,,,0.00,VWS V14.01,2013-03-04 05:40:00,
2013-03-03 21:46:00,33.1,5.0,30.17,WSW,247,0.0,0.0,30,0.00,,,0.00,VWS V14.01,2013-03-04 05:46:00,
2013-03-03 21:51:00,33.1,5.0,30.17,West,281,0.0,0.0,30,0.00,,,0.00,VWS V14.01,2013-03-04 05:51:00,
2013-03-03 21:57:00,32.7,4.7,30.17,WSW,241,3.1,3.1,30,0.00,,,0.00,VWS V14.01,2013-03-04 05:57:00,
2013-03-03 22:03:00,32.7,4.7,30.17,West,259,0.0,0.0,30,0.00,,,0.00,VWS V14.01,2013-03-04 06:03:00,
2013-03-03 22:09:00,32.7,4.7,30.17,WSW,253,3.6,3.6,30,0.00,,,0.00,VWS V14.01,2013-03-04 06:09:00,
2013-03-03 22:15:00,32.4,4.4,30.17,West,275,0.0,0.0,30,0.00,,,0.00,VWS V14.01,2013-03-04 06:15:00,
2013-03-03 22:20:00,32.2,4.2,30.17,NW,313,0.0,0.0,30,0.00,,,0.00,VWS V14.01,2013-03-04 06:20:00,
2013-03-03 22:25:00,32.2,4.2,30.17,WNW,298,0.0,0.0,30,0.00,,,0.00,VWS V14.01,2013-03-04 06:25:00,
2013-03-03 22:30:00,32.0,4.1,30.17,WSW,237,4.0,4.0,30,0.00,,,0.00,VWS V14.01,2013-03-04 06:30:00,
2013-03-03 22:36:00,32.0,4.1,30.17,WSW,243,0.0,0.0,30,0.00,,,0.00,VWS V14.01,2013-03-04 06:36:00,
2013-03-03 22:42:00,31.8,3.9,30.17,West,277,0.0,0.0,30,0.00,,,0.00,VWS V14.01,2013-03-04 06:42:00,
2013-03-03 22:48:00,31.6,3.8,30.17,West,277,0.0,0.0,30,0.00,,,0.00,VWS V14.01,2013-03-04 06:48:00,
2013-03-03 22:54:00,31.6,3.8,30.17,South,175,0.0,0.0,30,0.00,,,0.00,VWS V14.01,2013-03-04 06:54:00,
2013-03-03 22:59:00,31.6,3.8,30.17,WSW,247,0.0,0.0,30,0.00,,,0.00,VWS V14.01,2013-03-04 06:59:00,
2013-03-03 23:04:00,31.8,3.9,30.17,WSW,246,2.7,2.7,30,0.00,,,0.00,VWS V14.01,2013-03-04 07:04:00,
2013-03-03 23:09:00,31.8,3.9,30.17,NW,315,2.7,2.7,30,0.00,,,0.00,VWS V14.01,2013-03-04 07:09:00,
2013-03-03 23:15:00,31.6,3.8,30.17,SSW,205,0.0,0.0,30,0.00,,,0.00,VWS V14.01,2013-03-04 07:15:00,
2013-03-03 23:21:00,31.6,3.8,30.17,SW,226,0.0,0.0,30,0.00,,,0.00,VWS V14.01,2013-03-04 07:21:00,
2013-03-03 23:26:00,31.6,3.8,30.17,SW,218,0.0,5.4,30,0.00,,,0.00,VWS V14.01,2013-03-04 07:26:00,
2013-03-03 23:32:00,31.5,3.6,30.17,SW,220,2.7,2.7,30,0.00,,,0.00,VWS V14.01,2013-03-04 07:32:00,
2013-03-03 23:38:00,31.5,3.6,30.17,SW,223,0.0,0.0,30,0.00,,,0.00,VWS V14.01,2013-03-04 07:38:00,
2013-03-03 23:44:00,31.5,3.6,30.17,SW,224,0.0,0.0,30,0.00,,,0.00,VWS V14.01,2013-03-04 07:44:00,
2013-03-03 23:49:00,31.3,3.5,30.17,SW,224,0.0,0.0,30,0.00,,,0.00,VWS V14.01,2013-03-04 07:49:00,
2013-03-03 23:54:00,31.1,3.3,30.17,South,177,0.0,0.0,30,0.00,,,0.00,VWS V14.01,2013-03-04 07:54:00,